Current Weather

Phoenix Deer Valley

Phoenix, Arizona (KDVT)

Report from: Monday, August 15, 2022 5:53 PM MST
Current time: Monday, August 15, 2022 6:28 PM MST

Nearby weather
Weather history
Weather forecast

Temperature36.7°C (98.1°F)
Heat index36.9°C (98.5°F)
Dew point15.6°C (60.1°F)
Winds 9 kts (4.6 m/s, 10.4 mph) West-Southwest (250°)
Visibility10 mi. (16.1 km)
Clouds Sky clear
Altimeter29.77 in.Hg (1008 mB)
Relative humidity29 %
Density altitude2,870 ft. (875 m)
Sea-level pressure100.5 kPa (1005 mB, 29.69 in.Hg)
Remarks Automated weather observing station with precipitation discriminator
Flight conditions Visual Meteorological Conditions
Raw dataKDVT 160053Z 25009KT 10SM CLR 37/16 A2977 RMK AO2 SLP054 T03670156
An error has occurred. This application may no longer respond until reloaded. Reload 🗙